Time;durP1;ratioP1;P1;durP2;ratioP2;P2;SDS_P1;SDS_P2;PMS_P1;PMS_P2;Temp;Humidity;BMP_temperature;BMP_pressure;BME280_temperature;BME280_humidity;BME280_pressure;Samples;Min_cycle;Max_cycle;Signal;HPM_P1;HPM_P2
2023/08/15 00:00:41;;;;;;;0.10;0.10;;;;;;;;;;6249587;28;20028;-87
2023/08/15 00:03:41;;;;;;;0.00;0.00;;;;;;;;;;6249601;28;20034;-87
2023/08/15 00:06:41;;;;;;;0.00;0.00;;;;;;;;;;6228962;28;20648;-87
2023/08/15 00:09:41;;;;;;;0.10;0.10;;;;;;;;;;6241506;28;20135;-87
2023/08/15 00:12:41;;;;;;;0.00;0.00;;;;;;;;;;6240194;28;20037;-87
2023/08/15 00:15:42;;;;;;;0.00;0.00;;;;;;;;;;6248909;28;20522;-88
2023/08/15 00:18:42;;;;;;;0.00;0.00;;;;;;;;;;6224906;28;20034;-87
2023/08/15 00:21:42;;;;;;;0.00;0.00;;;;;;;;;;6246505;28;20033;-87
2023/08/15 00:24:43;;;;;;;0.10;0.10;;;;;;;;;;6246719;28;20056;-87
2023/08/15 00:27:43;;;;;;;0.10;0.10;;;;;;;;;;6246516;28;20116;-87
2023/08/15 00:30:43;;;;;;;0.00;0.00;;;;;;;;;;6247192;28;20029;-87
2023/08/15 00:33:43;;;;;;;0.00;0.00;;;;;;;;;;6228564;28;20389;-87
2023/08/15 00:36:44;;;;;;;0.10;0.10;;;;;;;;;;6244171;28;20029;-87
2023/08/15 00:39:44;;;;;;;0.10;0.10;;;;;;;;;;6246292;28;20025;-87
2023/08/15 00:42:44;;;;;;;0.00;0.00;;;;;;;;;;6246224;28;20640;-87
2023/08/15 00:45:44;;;;;;;0.00;0.00;;;;;;;;;;6244844;28;20018;-88
2023/08/15 00:48:45;;;;;;;0.10;0.10;;;;;;;;;;6245700;28;20048;-88
2023/08/15 00:51:46;;;;;;;0.00;0.00;;;;;;;;;;6244634;28;20060;-88
2023/08/15 00:54:48;;;;;;;0.00;0.00;;;;;;;;;;6244657;28;20017;-88
2023/08/15 00:57:49;;;;;;;0.10;0.10;;;;;;;;;;6249835;28;20709;-87
2023/08/15 01:00:51;;;;;;;0.10;0.10;;;;;;;;;;6251664;28;20061;-87
2023/08/15 01:03:51;;;;;;;0.10;0.10;;;;;;;;;;6219662;28;20044;-87
2023/08/15 01:06:52;;;;;;;0.10;0.10;;;;;;;;;;6244486;28;20021;-88
2023/08/15 01:09:52;;;;;;;0.00;0.00;;;;;;;;;;6226279;28;20471;-88
2023/08/15 01:12:52;;;;;;;0.00;0.00;;;;;;;;;;6244302;28;20029;-88
2023/08/15 01:15:52;;;;;;;0.10;0.10;;;;;;;;;;6245536;28;20357;-87
2023/08/15 01:19:05;;;;;;;0.00;0.00;;;;;;;;;;6250832;28;20037;-87
2023/08/15 01:22:13;;;;;;;0.05;0.05;;;;;;;;;;6246823;28;20376;-88
2023/08/15 01:25:14;;;;;;;0.10;0.10;;;;;;;;;;6226298;28;20032;-88
2023/08/15 01:28:15;;;;;;;0.10;0.10;;;;;;;;;;6246465;28;20014;-89
2023/08/15 01:31:15;;;;;;;0.00;0.00;;;;;;;;;;6230938;28;20567;-88
2023/08/15 01:34:18;;;;;;;0.00;0.00;;;;;;;;;;6243624;28;20026;-88
2023/08/15 01:37:25;;;;;;;0.10;0.10;;;;;;;;;;6243897;28;20146;-88
2023/08/15 01:40:26;;;;;;;0.00;0.00;;;;;;;;;;6243881;28;20069;-88
2023/08/15 01:43:27;;;;;;;0.10;0.10;;;;;;;;;;6245402;28;20017;-87
2023/08/15 01:46:27;;;;;;;0.00;0.00;;;;;;;;;;6241723;28;20147;-86
2023/08/15 01:49:28;;;;;;;0.00;0.00;;;;;;;;;;6189980;28;1389936;-87
2023/08/15 01:52:28;;;;;;;0.00;0.00;;;;;;;;;;6244822;28;20041;-87
2023/08/15 01:55:28;;;;;;;0.00;0.00;;;;;;;;;;6245276;28;20022;-87
2023/08/15 01:58:28;;;;;;;0.00;0.00;;;;;;;;;;6245008;28;20365;-86
2023/08/15 02:01:28;;;;;;;0.00;0.00;;;;;;;;;;6245783;28;20062;-87
2023/08/15 02:04:29;;;;;;;0.00;0.00;;;;;;;;;;6226678;28;20059;-87
2023/08/15 02:07:29;;;;;;;0.10;0.10;;;;;;;;;;6244351;28;20443;-87
2023/08/15 02:10:29;;;;;;;0.00;0.00;;;;;;;;;;6244788;28;20093;-87
2023/08/15 02:13:32;;;;;;;0.10;0.10;;;;;;;;;;6244046;28;20422;-87
2023/08/15 02:16:32;;;;;;;0.00;0.00;;;;;;;;;;6247145;28;20117;-87
2023/08/15 02:19:32;;;;;;;0.00;0.00;;;;;;;;;;6243195;28;20017;-87
2023/08/15 02:22:32;;;;;;;0.00;0.00;;;;;;;;;;6223581;28;20029;-87
2023/08/15 02:25:33;;;;;;;0.00;0.00;;;;;;;;;;6244375;28;20017;-87
2023/08/15 02:28:33;;;;;;;0.00;0.00;;;;;;;;;;6243515;28;20018;-87
2023/08/15 02:31:33;;;;;;;0.10;0.10;;;;;;;;;;6226048;28;20027;-87
2023/08/15 02:34:33;;;;;;;0.00;0.00;;;;;;;;;;6225505;28;20052;-86
2023/08/15 02:37:34;;;;;;;0.00;0.00;;;;;;;;;;6241756;28;20120;-77
2023/08/15 02:40:34;;;;;;;0.00;0.00;;;;;;;;;;6243756;28;20021;-77
2023/08/15 02:43:35;;;;;;;0.00;0.00;;;;;;;;;;6227761;28;20041;-77
2023/08/15 02:46:35;;;;;;;0.10;0.10;;;;;;;;;;6225702;28;20053;-84
2023/08/15 02:49:35;;;;;;;0.10;0.10;;;;;;;;;;6224832;28;20149;-84
2023/08/15 02:52:37;;;;;;;0.00;0.00;;;;;;;;;;6243885;28;20025;-85
2023/08/15 02:55:37;;;;;;;;;;;;;;;;;;6243331;28;20021;-84
2023/08/15 02:58:37;;;;;;;0.00;0.00;;;;;;;;;;6243217;28;19909;-76
2023/08/15 03:01:37;;;;;;;0.10;0.10;;;;;;;;;;6251708;28;20021;-76
2023/08/15 03:04:38;;;;;;;0.00;0.00;;;;;;;;;;6249099;28;20018;-76
2023/08/15 03:07:38;;;;;;;0.00;0.00;;;;;;;;;;6242647;28;20022;-76
2023/08/15 03:10:39;;;;;;;0.10;0.10;;;;;;;;;;6244142;28;20392;-76
2023/08/15 03:13:40;;;;;;;0.10;0.10;;;;;;;;;;6241933;28;20511;-76
2023/08/15 03:16:40;;;;;;;0.10;0.10;;;;;;;;;;6245676;28;20041;-76
2023/08/15 03:19:41;;;;;;;0.00;0.00;;;;;;;;;;6244737;28;20020;-75
2023/08/15 03:22:43;;;;;;;0.10;0.10;;;;;;;;;;6242812;28;20776;-75
2023/08/15 03:25:43;;;;;;;0.00;0.00;;;;;;;;;;6242905;28;20017;-75
2023/08/15 03:28:43;;;;;;;0.10;0.10;;;;;;;;;;6225522;28;20019;-75
2023/08/15 03:31:43;;;;;;;0.00;0.00;;;;;;;;;;6241276;28;20013;-75
2023/08/15 03:34:43;;;;;;;0.00;0.00;;;;;;;;;;6238799;28;20646;-75
2023/08/15 03:37:44;;;;;;;0.00;0.00;;;;;;;;;;6242280;28;20025;-76
2023/08/15 03:40:44;;;;;;;0.10;0.10;;;;;;;;;;6224083;28;20128;-75
2023/08/15 03:43:45;;;;;;;0.00;0.00;;;;;;;;;;6228014;28;20018;-75
2023/08/15 03:46:45;;;;;;;0.10;0.10;;;;;;;;;;6241691;28;20025;-75
2023/08/15 03:49:45;;;;;;;0.10;0.10;;;;;;;;;;6237602;28;20499;-76
2023/08/15 03:52:46;;;;;;;0.00;0.00;;;;;;;;;;6242924;28;20024;-75
2023/08/15 03:55:49;;;;;;;0.00;0.00;;;;;;;;;;6223303;28;20028;-76
2023/08/15 03:58:49;;;;;;;0.00;0.00;;;;;;;;;;6234572;28;20502;-75
2023/08/15 04:01:49;;;;;;;0.07;0.07;;;;;;;;;;6239885;28;20025;-76
2023/08/15 04:04:49;;;;;;;0.00;0.00;;;;;;;;;;6249456;28;20021;-76
2023/08/15 04:07:49;;;;;;;0.00;0.00;;;;;;;;;;6242604;28;20045;-85
2023/08/15 04:10:50;;;;;;;0.00;0.00;;;;;;;;;;6243007;28;20567;-85
2023/08/15 04:13:50;;;;;;;0.00;0.00;;;;;;;;;;6241356;28;20468;-84
2023/08/15 04:16:50;;;;;;;0.00;0.00;;;;;;;;;;6247015;28;20021;-85
2023/08/15 04:19:51;;;;;;;0.00;0.00;;;;;;;;;;6242116;28;20024;-85
2023/08/15 04:22:51;;;;;;;0.00;0.00;;;;;;;;;;6242296;28;20083;-85
2023/08/15 04:25:51;;;;;;;0.00;0.00;;;;;;;;;;6241785;28;20682;-85
2023/08/15 04:28:51;;;;;;;0.03;0.03;;;;;;;;;;6243548;28;20005;-85
2023/08/15 04:31:52;;;;;;;0.10;0.10;;;;;;;;;;6242704;28;20021;-84
2023/08/15 04:34:52;;;;;;;0.00;0.00;;;;;;;;;;6242556;28;20080;-85
2023/08/15 04:37:52;;;;;;;0.00;0.00;;;;;;;;;;6241702;28;20084;-84
2023/08/15 04:40:52;;;;;;;0.00;0.00;;;;;;;;;;6241742;28;20570;-84
2023/08/15 04:43:53;;;;;;;0.10;0.10;;;;;;;;;;6241667;28;20024;-84
2023/08/15 04:46:53;;;;;;;0.00;0.00;;;;;;;;;;6246767;28;20601;-85
2023/08/15 04:49:53;;;;;;;0.00;0.00;;;;;;;;;;6245865;28;20049;-85
2023/08/15 04:52:53;;;;;;;0.00;0.00;;;;;;;;;;6246159;28;20025;-85
2023/08/15 04:55:54;;;;;;;0.00;0.00;;;;;;;;;;6244771;28;20017;-87
2023/08/15 04:58:54;;;;;;;0.10;0.10;;;;;;;;;;6245368;28;20017;-87
2023/08/15 05:01:57;;;;;;;0.00;0.00;;;;;;;;;;6246111;28;20083;-87
2023/08/15 05:04:57;;;;;;;0.00;0.00;;;;;;;;;;6246174;28;20522;-88
2023/08/15 05:07:57;;;;;;;0.00;0.00;;;;;;;;;;6253854;28;20093;-87
2023/08/15 05:10:58;;;;;;;0.00;0.00;;;;;;;;;;6226863;28;20025;-88
2023/08/15 05:14:00;;;;;;;0.00;0.00;;;;;;;;;;6247470;28;20022;-87
2023/08/15 05:17:00;;;;;;;0.00;0.00;;;;;;;;;;6251229;28;20103;-77
2023/08/15 05:20:02;;;;;;;0.00;0.00;;;;;;;;;;6244905;28;20407;-77
2023/08/15 05:23:03;;;;;;;0.00;0.00;;;;;;;;;;6246685;28;20079;-76
2023/08/15 05:26:03;;;;;;;0.00;0.00;;;;;;;;;;6245372;28;20025;-77
2023/08/15 05:29:04;;;;;;;0.00;0.00;;;;;;;;;;6247466;28;20490;-77
2023/08/15 05:32:04;;;;;;;0.00;0.00;;;;;;;;;;6243757;28;20087;-77
2023/08/15 05:35:05;;;;;;;0.00;0.00;;;;;;;;;;6245236;28;20021;-77
2023/08/15 05:38:05;;;;;;;0.00;0.00;;;;;;;;;;6226680;28;20377;-77
2023/08/15 05:41:05;;;;;;;0.00;0.00;;;;;;;;;;6244758;28;20472;-76
2023/08/15 05:44:05;;;;;;;0.00;0.00;;;;;;;;;;6244334;28;20099;-77
2023/08/15 05:47:05;;;;;;;0.00;0.00;;;;;;;;;;6244284;28;20376;-77
2023/08/15 05:50:06;;;;;;;0.00;0.00;;;;;;;;;;6229464;28;20164;-76
2023/08/15 05:53:06;;;;;;;0.00;0.00;;;;;;;;;;6219262;28;20018;-76
2023/08/15 05:56:06;;;;;;;0.00;0.00;;;;;;;;;;6218845;28;20014;-76
2023/08/15 05:59:07;;;;;;;0.00;0.00;;;;;;;;;;6223075;28;20100;-76
2023/08/15 06:02:09;;;;;;;0.00;0.00;;;;;;;;;;6207184;28;20017;-76
2023/08/15 06:05:09;;;;;;;0.00;0.00;;;;;;;;;;6195483;28;20397;-76
2023/08/15 06:08:09;;;;;;;0.00;0.00;;;;;;;;;;6219637;28;20010;-76
2023/08/15 06:11:10;;;;;;;;;;;;;;;;;;6220562;28;20017;-76
2023/08/15 06:14:10;;;;;;;0.00;0.00;;;;;;;;;;6217433;28;20000;-76
2023/08/15 06:17:12;;;;;;;;;;;;;;;;;;6213683;28;20085;-76
2023/08/15 06:20:12;;;;;;;0.00;0.00;;;;;;;;;;6220395;28;19909;-76
2023/08/15 06:23:12;;;;;;;;;;;;;;;;;;6202950;28;20042;-76
2023/08/15 06:26:12;;;;;;;0.00;0.00;;;;;;;;;;6219009;28;20404;-76
2023/08/15 06:29:12;;;;;;;;;;;;;;;;;;6214979;28;20025;-76
2023/08/15 06:32:29;;;;;;;0.00;0.00;;;;;;;;;;6220895;28;19913;-76
2023/08/15 06:35:30;;;;;;;0.00;0.00;;;;;;;;;;6219068;28;20025;-76
2023/08/15 06:38:30;;;;;;;0.00;0.00;;;;;;;;;;6218616;28;20022;-75
2023/08/15 06:41:31;;;;;;;0.00;0.00;;;;;;;;;;6218483;28;20471;-75
2023/08/15 06:44:33;;;;;;;0.00;0.00;;;;;;;;;;6218624;28;20064;-75
2023/08/15 06:47:33;;;;;;;0.00;0.00;;;;;;;;;;6218168;28;20030;-75
2023/08/15 06:50:33;;;;;;;0.00;0.00;;;;;;;;;;6240626;28;20057;-75
2023/08/15 06:53:33;;;;;;;0.00;0.00;;;;;;;;;;6243292;28;20025;-75
2023/08/15 06:56:34;;;;;;;0.00;0.00;;;;;;;;;;6225027;28;20701;-75
2023/08/15 06:59:35;;;;;;;0.00;0.00;;;;;;;;;;6241967;28;20040;-75
2023/08/15 07:02:36;;;;;;;0.00;0.00;;;;;;;;;;6242636;28;20078;-75
2023/08/15 07:05:36;;;;;;;0.00;0.00;;;;;;;;;;6241908;28;20021;-75
2023/08/15 07:08:38;;;;;;;0.00;0.00;;;;;;;;;;6235954;28;20025;-75
2023/08/15 07:11:38;;;;;;;0.00;0.00;;;;;;;;;;6242526;28;20025;-76
2023/08/15 07:14:38;;;;;;;0.00;0.00;;;;;;;;;;6219772;28;20024;-75
2023/08/15 07:17:39;;;;;;;0.00;0.00;;;;;;;;;;6239868;28;20509;-76
2023/08/15 07:20:39;;;;;;;0.00;0.00;;;;;;;;;;6241954;28;20072;-75
2023/08/15 07:23:40;;;;;;;0.00;0.00;;;;;;;;;;6242334;28;20025;-75
2023/08/15 07:26:41;;;;;;;0.00;0.00;;;;;;;;;;6244121;28;20032;-75
2023/08/15 07:29:41;;;;;;;0.00;0.00;;;;;;;;;;6243292;28;20045;-76
2023/08/15 07:32:41;;;;;;;0.00;0.00;;;;;;;;;;6243389;28;20423;-75
2023/08/15 07:35:42;;;;;;;0.00;0.00;;;;;;;;;;6238738;28;20029;-75
2023/08/15 07:38:42;;;;;;;0.00;0.00;;;;;;;;;;6241399;28;20079;-85
2023/08/15 07:41:42;;;;;;;0.00;0.00;;;;;;;;;;6223176;28;20397;-85
2023/08/15 07:44:42;;;;;;;0.00;0.00;;;;;;;;;;6241683;28;20036;-85
2023/08/15 07:47:43;;;;;;;0.00;0.00;;;;;;;;;;6241230;28;20338;-85
2023/08/15 07:50:44;;;;;;;0.00;0.00;;;;;;;;;;6241649;28;20056;-85
2023/08/15 07:53:44;;;;;;;0.00;0.00;;;;;;;;;;6242237;28;20021;-85
2023/08/15 07:56:44;;;;;;;0.00;0.00;;;;;;;;;;6249605;28;20022;-85
2023/08/15 07:59:46;;;;;;;0.00;0.00;;;;;;;;;;6238062;28;20092;-85
2023/08/15 08:02:47;;;;;;;0.00;0.00;;;;;;;;;;6245525;28;20121;-85
2023/08/15 08:05:47;;;;;;;0.00;0.00;;;;;;;;;;6244015;28;20641;-85
2023/08/15 08:08:47;;;;;;;0.00;0.00;;;;;;;;;;6240523;28;20060;-85
2023/08/15 08:11:48;;;;;;;0.00;0.00;;;;;;;;;;6241503;28;20075;-85
2023/08/15 08:14:48;;;;;;;0.00;0.00;;;;;;;;;;6241366;28;20528;-86
2023/08/15 08:17:49;;;;;;;0.00;0.00;;;;;;;;;;6241567;28;20018;-85
2023/08/15 08:20:50;;;;;;;0.00;0.00;;;;;;;;;;6226838;28;20036;-85
2023/08/15 08:23:50;;;;;;;0.00;0.00;;;;;;;;;;6271644;28;20067;-85
2023/08/15 08:26:50;;;;;;;0.00;0.00;;;;;;;;;;6272026;28;20352;-85
2023/08/15 08:29:51;;;;;;;0.00;0.00;;;;;;;;;;6271051;28;20490;-85
2023/08/15 08:32:51;;;;;;;0.00;0.00;;;;;;;;;;6278877;28;20077;-86
2023/08/15 08:35:51;;;;;;;0.00;0.00;;;;;;;;;;6270868;28;20036;-85
2023/08/15 08:38:51;;;;;;;0.00;0.00;;;;;;;;;;6270926;28;20082;-85
2023/08/15 08:41:52;;;;;;;0.00;0.00;;;;;;;;;;6270804;28;20049;-85
2023/08/15 08:44:53;;;;;;;0.00;0.00;;;;;;;;;;6270373;28;20027;-85
2023/08/15 08:47:54;;;;;;;0.00;0.00;;;;;;;;;;6270219;28;20032;-85
2023/08/15 08:50:54;;;;;;;0.00;0.00;;;;;;;;;;6271123;28;20028;-85
2023/08/15 08:53:54;;;;;;;0.00;0.00;;;;;;;;;;6270334;28;20503;-84
2023/08/15 08:56:55;;;;;;;0.00;0.00;;;;;;;;;;6271695;28;20107;-84
2023/08/15 08:59:56;;;;;;;0.00;0.00;;;;;;;;;;6272486;28;20024;-84
2023/08/15 09:02:57;;;;;;;0.00;0.00;;;;;;;;;;6270099;28;20025;-85
2023/08/15 09:05:57;;;;;;;0.00;0.00;;;;;;;;;;6272186;28;20020;-85
2023/08/15 09:08:58;;;;;;;0.00;0.00;;;;;;;;;;6270279;28;20009;-74
2023/08/15 09:11:58;;;;;;;0.00;0.00;;;;;;;;;;6270199;28;20063;-74
2023/08/15 09:14:58;;;;;;;0.00;0.00;;;;;;;;;;6269575;28;20028;-74
2023/08/15 09:18:00;;;;;;;0.00;0.00;;;;;;;;;;6270791;28;20098;-74
2023/08/15 09:21:04;;;;;;;0.00;0.00;;;;;;;;;;6274070;28;20017;-74
2023/08/15 09:24:04;;;;;;;0.00;0.00;;;;;;;;;;6269779;28;20013;-74
2023/08/15 09:27:05;;;;;;;0.00;0.00;;;;;;;;;;6268888;28;20032;-74
2023/08/15 09:30:06;;;;;;;0.00;0.00;;;;;;;;;;6272402;28;20479;-74
2023/08/15 09:33:07;;;;;;;0.00;0.00;;;;;;;;;;6271624;28;20024;-74
2023/08/15 09:36:07;;;;;;;0.00;0.00;;;;;;;;;;6265129;28;20025;-74
2023/08/15 09:39:08;;;;;;;0.00;0.00;;;;;;;;;;6268897;28;20017;-74
2023/08/15 09:42:09;;;;;;;0.00;0.00;;;;;;;;;;6269367;28;20147;-74
2023/08/15 09:45:11;;;;;;;0.00;0.00;;;;;;;;;;6269692;28;20025;-74
2023/08/15 09:48:11;;;;;;;0.00;0.00;;;;;;;;;;6266814;28;20117;-74
2023/08/15 09:51:13;;;;;;;0.00;0.00;;;;;;;;;;6248683;28;20581;-74
2023/08/15 09:54:14;;;;;;;0.00;0.00;;;;;;;;;;6269103;28;20051;-74
2023/08/15 09:57:14;;;;;;;0.00;0.00;;;;;;;;;;6268691;28;20380;-74
2023/08/15 10:00:17;;;;;;;0.00;0.00;;;;;;;;;;6274291;28;20017;-74
2023/08/15 10:03:18;;;;;;;0.00;0.00;;;;;;;;;;6268885;28;20056;-74
2023/08/15 10:06:19;;;;;;;0.00;0.00;;;;;;;;;;6271663;28;20440;-74
2023/08/15 10:09:19;;;;;;;0.00;0.00;;;;;;;;;;6268622;28;20090;-74
2023/08/15 10:12:21;;;;;;;0.00;0.00;;;;;;;;;;6268321;28;20566;-74
2023/08/15 10:15:22;;;;;;;0.00;0.00;;;;;;;;;;6268550;28;20025;-74
2023/08/15 10:18:23;;;;;;;0.00;0.00;;;;;;;;;;6268968;28;20028;-74
2023/08/15 10:21:26;;;;;;;0.00;0.00;;;;;;;;;;6269262;28;20439;-74
2023/08/15 10:24:28;;;;;;;0.00;0.00;;;;;;;;;;6263753;28;20041;-75
2023/08/15 10:27:29;;;;;;;0.00;0.00;;;;;;;;;;6270343;28;20021;-84
2023/08/15 10:30:33;;;;;;;0.00;0.00;;;;;;;;;;6265338;28;20390;-86
2023/08/15 10:33:33;;;;;;;0.00;0.00;;;;;;;;;;6252278;28;20129;-84
2023/08/15 10:36:33;;;;;;;0.00;0.00;;;;;;;;;;6270350;28;20021;-85
2023/08/15 10:39:36;;;;;;;0.00;0.00;;;;;;;;;;6268442;28;20033;-86
2023/08/15 10:42:55;;;;;;;0.00;0.00;;;;;;;;;;6266583;28;20371;-85
2023/08/15 10:46:02;;;;;;;0.00;0.00;;;;;;;;;;6267557;28;20020;-84
2023/08/15 10:49:07;;;;;;;0.00;0.00;;;;;;;;;;6265371;28;20040;-85
2023/08/15 10:52:07;;;;;;;0.00;0.00;;;;;;;;;;6249572;28;20074;-85
2023/08/15 10:55:08;;;;;;;0.00;0.00;;;;;;;;;;6266793;28;20471;-86
2023/08/15 10:58:10;;;;;;;0.00;0.00;;;;;;;;;;6268056;28;20020;-86
2023/08/15 11:01:11;;;;;;;0.00;0.00;;;;;;;;;;6265800;28;20017;-84
2023/08/15 11:04:19;;;;;;;0.00;0.00;;;;;;;;;;6264092;28;20013;-85
2023/08/15 11:07:25;;;;;;;0.00;0.00;;;;;;;;;;6263555;28;20056;-86
2023/08/15 11:10:26;;;;;;;0.00;0.00;;;;;;;;;;6266796;28;20101;-86
2023/08/15 11:13:26;;;;;;;0.00;0.00;;;;;;;;;;6265700;28;20138;-86
2023/08/15 11:16:26;;;;;;;0.00;0.00;;;;;;;;;;6263596;28;20040;-86
2023/08/15 11:19:28;;;;;;;0.00;0.00;;;;;;;;;;6248100;28;20044;-87
2023/08/15 11:22:28;;;;;;;0.00;0.00;;;;;;;;;;6265879;28;20017;-86
2023/08/15 11:25:29;;;;;;;0.00;0.00;;;;;;;;;;6248716;28;20024;-86
2023/08/15 11:28:30;;;;;;;0.00;0.00;;;;;;;;;;6264413;28;20076;-84
2023/08/15 11:31:31;;;;;;;0.00;0.00;;;;;;;;;;6265166;28;20021;-86
2023/08/15 11:34:31;;;;;;;0.00;0.00;;;;;;;;;;6266550;28;20029;-86
2023/08/15 11:37:31;;;;;;;0.00;0.00;;;;;;;;;;6263030;28;20105;-73
2023/08/15 11:40:33;;;;;;;0.00;0.00;;;;;;;;;;6264178;28;20258;-74
2023/08/15 11:43:34;;;;;;;0.00;0.00;;;;;;;;;;6265428;28;20499;-74
2023/08/15 11:46:35;;;;;;;0.00;0.00;;;;;;;;;;6264843;28;20063;-74
2023/08/15 11:49:35;;;;;;;0.00;0.00;;;;;;;;;;6265407;28;20044;-74
2023/08/15 11:52:42;;;;;;;0.00;0.00;;;;;;;;;;6265304;28;20494;-74
2023/08/15 11:55:43;;;;;;;0.00;0.00;;;;;;;;;;6264593;28;20380;-74
2023/08/15 11:58:44;;;;;;;0.00;0.00;;;;;;;;;;6268559;28;20048;-74
2023/08/15 12:01:44;;;;;;;0.00;0.00;;;;;;;;;;6272140;28;20024;-74
2023/08/15 12:04:46;;;;;;;0.00;0.00;;;;;;;;;;6270619;28;20025;-74
2023/08/15 12:07:47;;;;;;;0.00;0.00;;;;;;;;;;6263149;28;20096;-74
2023/08/15 12:10:49;;;;;;;0.00;0.00;;;;;;;;;;6271014;28;20044;-74
2023/08/15 12:13:50;;;;;;;0.00;0.00;;;;;;;;;;6270240;28;20024;-74
2023/08/15 12:16:51;;;;;;;0.00;0.00;;;;;;;;;;6266741;28;20153;-74
2023/08/15 12:19:51;;;;;;;0.00;0.00;;;;;;;;;;6270353;28;20047;-74
2023/08/15 12:22:51;;;;;;;0.00;0.00;;;;;;;;;;6276266;28;20025;-74
2023/08/15 12:25:51;;;;;;;0.00;0.00;;;;;;;;;;6270780;28;20031;-74
2023/08/15 12:28:52;;;;;;;0.00;0.00;;;;;;;;;;6271152;28;20028;-74
2023/08/15 12:31:52;;;;;;;0.00;0.00;;;;;;;;;;6269856;28;20467;-74
2023/08/15 12:34:53;;;;;;;0.00;0.00;;;;;;;;;;6274307;28;20104;-74
2023/08/15 12:37:53;;;;;;;0.00;0.00;;;;;;;;;;6266439;28;20025;-74
2023/08/15 12:40:54;;;;;;;0.00;0.00;;;;;;;;;;6270416;28;20064;-74
2023/08/15 12:43:54;;;;;;;0.00;0.00;;;;;;;;;;6269751;28;20601;-74
2023/08/15 12:46:55;;;;;;;0.00;0.00;;;;;;;;;;6270334;28;20471;-86
2023/08/15 12:49:55;;;;;;;0.00;0.00;;;;;;;;;;6269910;28;20067;-86
2023/08/15 12:52:55;;;;;;;0.00;0.00;;;;;;;;;;6252352;28;20025;-85
2023/08/15 12:55:55;;;;;;;0.00;0.00;;;;;;;;;;6268330;28;20045;-86
2023/08/15 12:58:55;;;;;;;0.00;0.00;;;;;;;;;;6270346;28;20028;-88
2023/08/15 13:01:55;;;;;;;0.00;0.00;;;;;;;;;;6270697;28;20035;-87
2023/08/15 13:04:56;;;;;;;0.00;0.00;;;;;;;;;;6274153;28;20029;-87
2023/08/15 13:07:56;;;;;;;0.00;0.00;;;;;;;;;;6268961;28;20029;-86
2023/08/15 13:10:59;;;;;;;0.00;0.00;;;;;;;;;;6268835;28;20041;-86
2023/08/15 13:13:59;;;;;;;0.00;0.00;;;;;;;;;;6269141;28;20017;-86
2023/08/15 13:17:00;;;;;;;0.00;0.00;;;;;;;;;;6268831;28;20020;-86
2023/08/15 13:20:00;;;;;;;0.00;0.00;;;;;;;;;;6269879;28;20021;-86
2023/08/15 13:23:01;;;;;;;0.00;0.00;;;;;;;;;;6266709;28;20475;-86
2023/08/15 13:26:01;;;;;;;0.00;0.00;;;;;;;;;;6268559;28;20017;-87
2023/08/15 13:29:01;;;;;;;0.00;0.00;;;;;;;;;;6251098;28;20029;-87
2023/08/15 13:32:02;;;;;;;0.00;0.00;;;;;;;;;;6270768;28;20106;-87
2023/08/15 13:35:02;;;;;;;0.00;0.00;;;;;;;;;;6268024;28;20064;-87
2023/08/15 13:38:02;;;;;;;0.00;0.00;;;;;;;;;;6267299;28;20040;-88
2023/08/15 13:41:03;;;;;;;0.00;0.00;;;;;;;;;;6266800;28;20024;-87
2023/08/15 13:44:04;;;;;;;0.00;0.00;;;;;;;;;;6266312;28;20134;-87
2023/08/15 13:47:04;;;;;;;0.00;0.00;;;;;;;;;;6266838;28;20017;-86
2023/08/15 13:50:05;;;;;;;0.00;0.00;;;;;;;;;;6267306;28;20510;-87
2023/08/15 13:53:05;;;;;;;0.00;0.00;;;;;;;;;;6269863;28;20021;-89
2023/08/15 13:56:05;;;;;;;0.00;0.00;;;;;;;;;;6269914;28;20053;-86
2023/08/15 13:59:05;;;;;;;0.00;0.00;;;;;;;;;;6269773;28;20020;-86
2023/08/15 14:02:05;;;;;;;0.00;0.00;;;;;;;;;;6270176;28;20537;-87
2023/08/15 14:05:06;;;;;;;0.00;0.00;;;;;;;;;;6282392;28;20021;-87
2023/08/15 14:08:06;;;;;;;0.00;0.00;;;;;;;;;;6291386;28;20016;-86
2023/08/15 14:11:06;;;;;;;0.00;0.00;;;;;;;;;;6281811;28;20263;-86
2023/08/15 14:14:06;;;;;;;0.00;0.00;;;;;;;;;;6278405;28;20108;-86
2023/08/15 14:17:07;;;;;;;0.00;0.00;;;;;;;;;;6276365;28;20020;-87
2023/08/15 14:20:07;;;;;;;0.00;0.00;;;;;;;;;;6275845;28;20457;-87
2023/08/15 14:23:07;;;;;;;0.00;0.00;;;;;;;;;;6274718;28;20021;-88
2023/08/15 14:26:07;;;;;;;0.00;0.00;;;;;;;;;;6274226;28;20013;-87
2023/08/15 14:29:08;;;;;;;0.00;0.00;;;;;;;;;;6274236;28;20005;-87
2023/08/15 14:32:08;;;;;;;0.00;0.00;;;;;;;;;;6265136;28;20427;-87
2023/08/15 14:35:08;;;;;;;0.00;0.00;;;;;;;;;;6274318;28;20510;-86
2023/08/15 14:38:08;;;;;;;0.00;0.00;;;;;;;;;;6268153;28;20018;-87
2023/08/15 14:41:08;;;;;;;0.00;0.00;;;;;;;;;;6271849;28;20031;-86
2023/08/15 14:44:12;;;;;;;0.00;0.00;;;;;;;;;;6269361;28;20430;-86
2023/08/15 14:47:13;;;;;;;0.00;0.00;;;;;;;;;;6269583;28;20518;-87
2023/08/15 14:50:14;;;;;;;0.00;0.00;;;;;;;;;;6269696;28;20416;-87
2023/08/15 14:53:14;;;;;;;0.00;0.00;;;;;;;;;;6269010;28;20108;-87
2023/08/15 14:56:14;;;;;;;0.00;0.00;;;;;;;;;;6268166;28;20033;-87
2023/08/15 14:59:15;;;;;;;0.00;0.00;;;;;;;;;;6268621;28;20074;-87
2023/08/15 15:02:16;;;;;;;0.00;0.00;;;;;;;;;;6268677;28;20075;-87
2023/08/15 15:05:17;;;;;;;0.00;0.00;;;;;;;;;;6268899;28;20106;-89
2023/08/15 15:08:17;;;;;;;0.00;0.00;;;;;;;;;;6269942;28;20020;-88
2023/08/15 15:11:17;;;;;;;0.00;0.00;;;;;;;;;;6269400;28;20035;-86
2023/08/15 15:14:17;;;;;;;0.00;0.00;;;;;;;;;;6269391;28;20044;-88
2023/08/15 15:17:18;;;;;;;0.00;0.00;;;;;;;;;;6262943;28;20558;-88
2023/08/15 15:20:18;;;;;;;0.00;0.00;;;;;;;;;;6269339;28;20016;-88
2023/08/15 15:23:18;;;;;;;0.00;0.00;;;;;;;;;;6269539;28;20025;-87
2023/08/15 15:26:19;;;;;;;0.00;0.00;;;;;;;;;;6270592;28;20052;-88
2023/08/15 15:29:19;;;;;;;0.00;0.00;;;;;;;;;;6265499;28;20032;-88
2023/08/15 15:32:19;;;;;;;0.00;0.00;;;;;;;;;;6274564;28;20021;-89
2023/08/15 15:35:20;;;;;;;0.00;0.00;;;;;;;;;;6269963;28;20025;-89
2023/08/15 15:38:21;;;;;;;0.00;0.00;;;;;;;;;;6269879;28;20021;-90
2023/08/15 15:41:21;;;;;;;0.00;0.00;;;;;;;;;;6269465;28;20032;-87
2023/08/15 15:44:21;;;;;;;0.00;0.00;;;;;;;;;;6270043;28;20518;-87
2023/08/15 15:47:22;;;;;;;0.00;0.00;;;;;;;;;;6269163;28;20477;-89
2023/08/15 15:50:24;;;;;;;0.00;0.00;;;;;;;;;;6270999;28;20039;-89
2023/08/15 15:53:24;;;;;;;0.00;0.00;;;;;;;;;;6253182;28;20029;-89
2023/08/15 15:56:25;;;;;;;0.00;0.00;;;;;;;;;;6270141;28;20032;-88
2023/08/15 15:59:25;;;;;;;0.00;0.00;;;;;;;;;;6272829;28;20029;-88
2023/08/15 16:02:25;;;;;;;0.00;0.00;;;;;;;;;;6280107;28;20029;-88
2023/08/15 16:05:25;;;;;;;0.00;0.00;;;;;;;;;;6282786;28;20017;-88
2023/08/15 16:08:26;;;;;;;0.00;0.00;;;;;;;;;;6282517;28;20028;-88
2023/08/15 16:11:26;;;;;;;0.00;0.00;;;;;;;;;;6282300;28;20286;-89
2023/08/15 16:14:27;;;;;;;0.00;0.00;;;;;;;;;;6277445;28;20621;-88
2023/08/15 16:17:28;;;;;;;0.00;0.00;;;;;;;;;;6281730;28;20364;-88
2023/08/15 16:20:29;;;;;;;0.00;0.00;;;;;;;;;;6279271;28;20554;-88
2023/08/15 16:23:29;;;;;;;0.00;0.00;;;;;;;;;;6275980;28;20529;-90
2023/08/15 16:26:29;;;;;;;0.00;0.00;;;;;;;;;;6266763;28;20009;-90
2023/08/15 16:29:29;;;;;;;0.00;0.00;;;;;;;;;;6263568;28;20048;-89
2023/08/15 16:32:30;;;;;;;0.00;0.00;;;;;;;;;;6268124;28;20032;-89
2023/08/15 16:35:30;;;;;;;0.00;0.00;;;;;;;;;;6269526;28;20024;-90
2023/08/15 16:38:30;;;;;;;0.00;0.00;;;;;;;;;;6266686;28;20531;-90
2023/08/15 16:41:30;;;;;;;0.00;0.00;;;;;;;;;;6269292;28;20052;-91
2023/08/15 16:44:31;;;;;;;0.00;0.00;;;;;;;;;;6249509;28;20033;-91
2023/08/15 16:47:31;;;;;;;0.00;0.00;;;;;;;;;;6269342;28;20041;-88
2023/08/15 16:50:31;;;;;;;0.00;0.00;;;;;;;;;;6274491;28;20037;-91
2023/08/15 16:53:31;;;;;;;0.00;0.00;;;;;;;;;;6277248;28;20052;-90
2023/08/15 16:56:32;;;;;;;0.00;0.00;;;;;;;;;;6267370;28;20021;-88
2023/08/15 16:59:32;;;;;;;0.00;0.00;;;;;;;;;;6271348;28;20278;-90
2023/08/15 17:02:32;;;;;;;0.00;0.00;;;;;;;;;;6272410;28;20025;-90
2023/08/15 17:05:32;;;;;;;0.00;0.00;;;;;;;;;;6272730;28;20013;-91
2023/08/15 17:08:33;;;;;;;0.00;0.00;;;;;;;;;;6272320;28;20036;-90
2023/08/15 17:11:33;;;;;;;0.00;0.00;;;;;;;;;;6276777;28;20029;-91
2023/08/15 17:14:33;;;;;;;0.00;0.00;;;;;;;;;;6265544;28;20120;-87
2023/08/15 17:17:34;;;;;;;0.00;0.00;;;;;;;;;;6252335;28;20032;-90
2023/08/15 17:20:34;;;;;;;0.00;0.00;;;;;;;;;;6270660;28;20128;-89
2023/08/15 17:23:34;;;;;;;0.00;0.00;;;;;;;;;;6270718;28;20490;-89
2023/08/15 17:26:34;;;;;;;0.00;0.00;;;;;;;;;;6271985;28;20104;-89
2023/08/15 17:29:35;;;;;;;0.00;0.00;;;;;;;;;;6261277;28;20017;-91
2023/08/15 17:32:35;;;;;;;0.00;0.00;;;;;;;;;;6271431;28;20553;-90
2023/08/15 17:35:35;;;;;;;0.00;0.00;;;;;;;;;;6269945;28;20410;-91
2023/08/15 17:38:36;;;;;;;0.00;0.00;;;;;;;;;;6269531;28;20059;-92
2023/08/15 17:41:36;;;;;;;0.00;0.00;;;;;;;;;;6267694;28;20016;-91
2023/08/15 17:44:36;;;;;;;0.00;0.00;;;;;;;;;;6271928;28;20052;-90
2023/08/15 17:47:37;;;;;;;0.00;0.00;;;;;;;;;;6266722;28;20045;-91
2023/08/15 17:50:37;;;;;;;0.00;0.00;;;;;;;;;;6269773;28;20045;-91
2023/08/15 17:53:37;;;;;;;0.00;0.00;;;;;;;;;;6272687;28;20081;-90
2023/08/15 17:56:38;;;;;;;0.00;0.00;;;;;;;;;;6273427;28;20020;-91
2023/08/15 17:59:38;;;;;;;0.00;0.00;;;;;;;;;;6272432;28;20380;-91
2023/08/15 18:02:38;;;;;;;;;;;;;;;;;;6255280;28;20024;-91
2023/08/15 18:05:38;;;;;;;0.00;0.00;;;;;;;;;;6273554;28;19912;-91